M I D A S
Marine Information and Data Acquisition System
Tripno 1520 of the Zeeleeuw from 2008-07-16 06:56:36 to 2008-07-16 11:30:06
Back to CruiseResearch ActivitiesStationsMapUnderway DataData graphs

EquipmentUnitsComment
TimeDGPSUTC
LatitudeDGPSDM.mWGS84
LongitudeDGPSDM.mWGS84
HeadingGyrodeg 
SOGDGPSknotsSpeed over ground
COGDGPSdegCourse over ground
DepthEcho soundermeters200 kHz
Missing or incorrect values are displayed as -999
Navigation data collected by the RV Zeeleeuw from 2008-07-16 06:49:13 to 2008-07-16 11:42:08
Time Latitude Longitude Heading SOG COG Depth
2008-07-16 06:50:18 51°13.623 2°56.047 125.4 -999 224 -999
2008-07-16 06:51:18 51°13.622 2°56.047 125.5 -999 211 -999
2008-07-16 06:52:18 51°13.622 2°56.047 125.5 -999 187 -999
2008-07-16 06:53:18 51°13.623 2°56.048 125.6 -999 282 -999
2008-07-16 06:54:18 51°13.623 2°56.048 125.6 -999 196 6.3
2008-07-16 06:55:18 51°13.623 2°56.047 126.8 -999 220 -999
2008-07-16 06:56:18 51°13.622 2°56.046 110.5 0.6 286 -999
2008-07-16 06:57:18 51°13.638 2°55.985 116 3.6 295 -999
2008-07-16 06:58:18 51°13.67 2°55.881 125 4.8 302 -999
2008-07-16 06:59:18 51°13.709 2°55.795 134.9 3.4 311 10.8
2008-07-16 07:00:18 51°13.738 2°55.75 138.5 3.4 319 -999
2008-07-16 07:01:18 51°13.793 2°55.667 138.4 5.1 317 -999
2008-07-16 07:02:18 51°13.858 2°55.598 159.1 4.7 335 -999
2008-07-16 07:03:18 51°13.925 2°55.594 201.7 3.6 18 -999
2008-07-16 07:04:18 51°13.955 2°55.615 230.2 0.3 290 11.3
2008-07-16 07:05:18 51°13.966 2°55.56 303.6 3.6 311 11
2008-07-16 07:06:18 51°14.056 2°55.467 331.1 8.4 329 10.8
2008-07-16 07:07:18 51°14.19 2°55.34 329.4 10 325 10.6
2008-07-16 07:08:18 51°14.317 2°55.15 313.4 10.8 311 10
2008-07-16 07:09:18 51°14.441 2°54.92 315.6 12 315 10.5
2008-07-16 07:10:18 51°14.582 2°54.686 319 12.3 313 9.6
2008-07-16 07:11:18 51°14.714 2°54.434 316 12.3 312 9.7
2008-07-16 07:12:18 51°14.838 2°54.178 310.9 12.2 304 9.5
2008-07-16 07:13:18 51°14.904 2°53.868 288.4 12.6 285 9.1
2008-07-16 07:14:18 51°14.943 2°53.542 279.3 12.6 275 9.3
2008-07-16 07:15:18 51°14.955 2°53.205 276.5 12.7 273 9.9
2008-07-16 07:16:18 51°14.967 2°52.87 276.6 12.7 273 10.2
2008-07-16 07:17:18 51°14.974 2°52.533 274.3 12.8 271 10
2008-07-16 07:18:18 51°14.976 2°52.193 273.8 12.8 270 10.2
2008-07-16 07:19:18 51°14.989 2°51.855 276.8 12.8 273 10.8
2008-07-16 07:20:18 51°15.006 2°51.517 280 12.8 276 11.3
2008-07-16 07:21:18 51°15.042 2°51.182 285.1 12.8 281 11.7
2008-07-16 07:22:18 51°15.1 2°50.857 293.1 12.8 287 12
2008-07-16 07:23:18 51°15.167 2°50.535 293.8 12.8 289 12.3
2008-07-16 07:24:18 51°15.233 2°50.213 291.6 12.7 287 12.5
2008-07-16 07:25:18 51°15.3 2°49.894 294.5 12.7 291 12.8
2008-07-16 07:26:18 51°15.372 2°49.576 293.9 12.7 289 12.8
2008-07-16 07:27:18 51°15.44 2°49.257 291.1 12.6 286 12.9
2008-07-16 07:28:18 51°15.499 2°48.936 289.6 12.6 286 11.6
2008-07-16 07:29:18 51°15.558 2°48.618 290.2 12.5 286 10.4
2008-07-16 07:30:18 51°15.616 2°48.299 290.2 12.6 286 10.8
2008-07-16 07:31:18 51°15.688 2°47.986 296.4 12.6 291 12.3
2008-07-16 07:32:18 51°15.771 2°47.677 298 12.7 293 14.4
2008-07-16 07:33:18 51°15.849 2°47.364 295.1 12.7 291 15.7
2008-07-16 07:34:18 51°15.925 2°47.047 294.5 12.7 290 16.6
2008-07-16 07:35:18 51°15.996 2°46.73 293.1 12.7 289 15.6
2008-07-16 07:36:18 51°16.071 2°46.418 296 12.5 292 11.8
2008-07-16 07:37:18 51°16.149 2°46.112 296.1 12.3 292 11.4
2008-07-16 07:38:18 51°16.227 2°45.809 296.9 12.3 293 10.5
2008-07-16 07:39:18 51°16.304 2°45.507 297.1 12.2 294 10.5
2008-07-16 07:40:18 51°16.388 2°45.212 299.9 12.2 295 11.1
2008-07-16 07:41:18 51°16.478 2°44.92 301.9 12.2 297 10.8
2008-07-16 07:42:18 51°16.576 2°44.636 305.7 12.3 300 11.6
2008-07-16 07:43:18 51°16.687 2°44.363 310 12.3 304 14.2
2008-07-16 07:44:18 51°16.8 2°44.091 309.6 12.3 304 15.1
2008-07-16 07:45:18 51°16.919 2°43.823 311.4 12.4 304 14.6
2008-07-16 07:46:18 51°17.028 2°43.543 306.1 12.5 300 14.5
2008-07-16 07:47:18 51°17.142 2°43.268 310.6 12.4 305 12.1
2008-07-16 07:48:18 51°17.268 2°43.006 313.4 12.4 307 11.4
2008-07-16 07:49:18 51°17.394 2°42.744 312.1 12.7 307 12
2008-07-16 07:50:18 51°17.516 2°42.469 308.7 12.7 304 22
2008-07-16 07:51:18 51°17.632 2°42.19 308.6 12.7 303 23.7
2008-07-16 07:52:18 51°17.753 2°41.917 315.1 12.5 310 24
2008-07-16 07:53:18 51°17.9 2°41.69 324.3 12.2 317 23.8
2008-07-16 07:54:18 51°18.043 2°41.459 319.6 12.2 314 22.1
2008-07-16 07:55:18 51°18.177 2°41.211 313.8 12.4 307 19.3
2008-07-16 07:56:18 51°18.296 2°40.941 310.3 12.4 305 17.1
2008-07-16 07:57:18 51°18.424 2°40.678 314.7 12.5 309 19.5
2008-07-16 07:58:18 51°18.554 2°40.418 313.3 12.5 307 14.3
2008-07-16 07:59:18 51°18.677 2°40.146 311.1 12.6 307 23.7
2008-07-16 08:00:18 51°18.803 2°39.88 312.3 12.6 307 23.9
2008-07-16 08:01:18 51°18.935 2°39.625 314.8 12.5 310 24.5
2008-07-16 08:02:18 51°19.067 2°39.371 314.2 12.4 308 26.5
2008-07-16 08:03:18 51°19.19 2°39.105 311.1 12.4 306 28.4
2008-07-16 08:04:18 51°19.312 2°38.84 312.7 12.5 306 28.4
2008-07-16 08:05:19 51°19.437 2°38.571 312 12.4 307 25.9
2008-07-16 08:06:18 51°19.559 2°38.315 313 12.3 308 23.6
2008-07-16 08:07:19 51°19.686 2°38.051 312.8 12.3 308 21.7
2008-07-16 08:08:18 51°19.808 2°37.795 313.1 12.3 307 20.2
2008-07-16 08:09:18 51°19.912 2°37.532 304.9 9.9 299 22.7
2008-07-16 08:10:18 51°19.983 2°37.33 306.7 8.2 299 23
2008-07-16 08:11:18 51°20.034 2°37.132 296.8 7.5 290 22.6
2008-07-16 08:12:18 51°20.068 2°36.995 309.1 4.4 295 21.4
2008-07-16 08:13:18 51°20.097 2°36.912 316 2.6 295 21.7
2008-07-16 08:14:18 51°20.092 2°36.884 331.7 1 221 21.9
2008-07-16 08:15:18 51°20.079 2°36.869 345.8 0.9 210 -999
2008-07-16 08:16:19 51°20.064 2°36.858 358 1 201 23.1
2008-07-16 08:17:18 51°20.049 2°36.848 11.2 1 196 22.8
2008-07-16 08:18:18 51°20.032 2°36.841 23.1 1 197 22.6
2008-07-16 08:19:18 51°20.016 2°36.835 36 1 193 22.3
2008-07-16 08:20:18 51°20 2°36.829 46 1 192 22.2
2008-07-16 08:21:18 51°19.984 2°36.824 52 1 192 21.6
2008-07-16 08:22:18 51°19.968 2°36.819 56.6 0.9 192 21.2
2008-07-16 08:23:18 51°19.953 2°36.815 56.4 0.9 188 22.2
2008-07-16 08:24:18 51°19.938 2°36.811 53.2 0.9 187 22.2
2008-07-16 08:25:18 51°19.925 2°36.808 50.5 0.8 187 22.1
2008-07-16 08:26:18 51°19.911 2°36.805 49.1 0.8 187 21.6
2008-07-16 08:27:18 51°19.898 2°36.802 48 0.8 188 21.1
2008-07-16 08:28:18 51°19.886 2°36.799 45.2 0.7 188 22
2008-07-16 08:29:18 51°19.874 2°36.796 41.4 0.7 194 22.1
2008-07-16 08:30:18 51°19.863 2°36.793 39.1 0.7 187 21.6
2008-07-16 08:31:18 51°19.851 2°36.791 37.4 0.7 188 20.1
2008-07-16 08:32:19 51°19.839 2°36.789 34.7 0.7 183 21.7
2008-07-16 08:33:18 51°19.828 2°36.787 33.2 0.7 186 22.6
2008-07-16 08:34:19 51°19.816 2°36.786 35.1 0.7 188 22.8
2008-07-16 08:35:18 51°19.804 2°36.785 38.6 0.7 187 22.4
2008-07-16 08:36:19 51°19.792 2°36.784 39.8 0.7 187 21.6
2008-07-16 08:37:18 51°19.78 2°36.783 39 0.7 180 20.4
2008-07-16 08:38:18 51°19.769 2°36.783 37.3 0.7 182 20.3
2008-07-16 08:39:18 51°19.758 2°36.783 34.4 0.6 180 21.2
2008-07-16 08:40:18 51°19.748 2°36.783 33.2 0.6 177 21.6
2008-07-16 08:41:19 51°19.737 2°36.786 33.3 0.6 171 21.6
2008-07-16 08:42:18 51°19.731 2°36.791 29.7 0.3 121 21.8
2008-07-16 08:43:18 51°19.733 2°36.801 23.7 0.6 51 21.2
2008-07-16 08:44:18 51°19.746 2°36.812 15.5 1.1 20 21
2008-07-16 08:45:18 51°19.764 2°36.823 11.7 1.3 19 22.4
2008-07-16 08:46:18 51°19.787 2°36.83 6.9 1.5 7 22.7
2008-07-16 08:47:18 51°19.812 2°36.833 2.1 1.6 1 20.3
2008-07-16 08:48:18 51°19.838 2°36.838 12 1.5 16 21.9
2008-07-16 08:49:18 51°19.864 2°36.848 6.8 1.6 10 22.1
2008-07-16 08:50:19 51°19.89 2°36.853 3.3 1.6 8 22.3
2008-07-16 08:51:18 51°19.917 2°36.861 9.8 1.7 14 22.2
2008-07-16 08:52:19 51°19.945 2°36.871 7 1.7 12 22.3
2008-07-16 08:53:18 51°19.971 2°36.881 7.2 1.4 16 22.6
2008-07-16 08:54:19 51°19.987 2°36.891 7.3 0.8 24 22.6
2008-07-16 08:55:19 51°19.995 2°36.899 5.2 0.5 44 22.7
2008-07-16 08:56:18 51°19.998 2°36.908 9.8 0.4 83 22.6
2008-07-16 08:57:19 51°19.997 2°36.918 13.2 0.4 102 22.8
2008-07-16 08:58:18 51°19.995 2°36.929 14.7 0.4 119 22.8
2008-07-16 08:59:19 51°19.99 2°36.939 16 0.5 128 22.7
2008-07-16 09:00:18 51°19.985 2°36.951 18.4 0.6 130 22.5
2008-07-16 09:01:18 51°19.978 2°36.962 20.5 0.6 131 22.4
2008-07-16 09:02:18 51°19.971 2°36.974 23.4 0.6 134 22.2
2008-07-16 09:03:18 51°19.963 2°36.987 24.7 0.7 132 22.2
2008-07-16 09:04:18 51°19.956 2°37.001 26.9 0.6 129 21.9
2008-07-16 09:05:18 51°19.951 2°37.015 22 0.6 106 22.3
2008-07-16 09:06:19 51°19.95 2°37.03 13.5 0.6 91 22.8
2008-07-16 09:07:18 51°19.951 2°37.043 6.6 0.5 76 23.1
2008-07-16 09:08:19 51°19.954 2°37.055 359.5 0.5 65 23.2
2008-07-16 09:09:18 51°19.959 2°37.064 350.4 0.6 17 23.2
2008-07-16 09:10:19 51°19.977 2°37.055 329.3 1.6 334 22.5
2008-07-16 09:11:18 51°19.998 2°37.046 351.8 0.4 29 21.1
2008-07-16 09:12:19 51°19.995 2°37.056 18 0.6 123 22.3
2008-07-16 09:13:19 51°19.988 2°37.071 41.5 0.7 123 22.6
2008-07-16 09:14:18 51°19.981 2°37.088 55.4 0.9 128 22.2
2008-07-16 09:15:19 51°19.973 2°37.106 60.1 0.9 119 23.1
2008-07-16 09:16:18 51°19.968 2°37.128 48.1 0.9 98 23.6
2008-07-16 09:17:19 51°19.971 2°37.154 27.7 1 65 22.6
2008-07-16 09:18:18 51°19.982 2°37.172 3.5 1.1 30 23.1
2008-07-16 09:19:18 51°20.003 2°37.17 327.4 1.6 326 23.3
2008-07-16 09:20:18 51°20.019 2°37.119 289.8 2.8 288 22.1
2008-07-16 09:21:18 51°20.035 2°37.057 300.1 2.5 298 23.2
2008-07-16 09:22:19 51°20.057 2°36.999 304.4 2.4 301 22.8
2008-07-16 09:23:18 51°20.076 2°36.945 303.9 2.3 302 25.6
2008-07-16 09:24:19 51°20.094 2°36.909 314.3 1.3 315 23
2008-07-16 09:25:18 51°20.106 2°36.897 329.7 0.7 351 23.5
2008-07-16 09:26:19 51°20.113 2°36.904 348.1 0.5 61 23.7
2008-07-16 09:27:18 51°20.108 2°36.919 12.3 0.8 141 24
2008-07-16 09:28:19 51°20.096 2°36.929 39.1 1 172 26.9
2008-07-16 09:29:19 51°20.084 2°36.934 54.3 0.7 163 26.4
2008-07-16 09:30:18 51°20.081 2°36.954 47.4 1.6 67 25.2
2008-07-16 09:31:19 51°20.122 2°36.97 339.5 3.1 338 23.6
2008-07-16 09:32:18 51°20.127 2°36.888 245.5 4.5 230 23.8
2008-07-16 09:33:19 51°20.082 2°36.87 176.6 0.3 55 23.9
2008-07-16 09:34:18 51°20.081 2°36.884 174.3 0.6 104 -999
2008-07-16 09:35:18 51°20.082 2°36.899 172.7 0.6 88 25.2
2008-07-16 09:36:18 51°20.081 2°36.917 173.1 0.7 98 26.9
2008-07-16 09:37:19 51°20.078 2°36.937 171.2 0.8 103 26.6
2008-07-16 09:38:19 51°20.063 2°36.955 185.8 2.3 178 25.3
2008-07-16 09:39:18 51°20.033 2°36.902 262.6 3.3 263 24.5
2008-07-16 09:40:19 51°20.073 2°36.846 346.1 3.8 -999 24
2008-07-16 09:41:18 51°20.1 2°36.87 35.3 0.9 75 22.7
2008-07-16 09:42:19 51°20.101 2°36.895 62.9 1 91 22
2008-07-16 09:43:19 51°20.098 2°36.912 79.7 0.4 193 23.3
2008-07-16 09:44:19 51°20.095 2°36.894 95 0.7 266 -999
2008-07-16 09:45:19 51°20.094 2°36.905 79 1.3 90 23
2008-07-16 09:46:18 51°20.094 2°36.935 57.4 0.8 102 26
2008-07-16 09:47:19 51°20.087 2°36.948 62.2 0.6 154 25.7
2008-07-16 09:48:18 51°20.079 2°36.951 75.6 0.4 155 25.5
2008-07-16 09:49:19 51°20.073 2°36.96 81.5 0.8 109 25.1
2008-07-16 09:50:18 51°20.084 2°37.007 41.3 2.5 53 22.6
2008-07-16 09:51:19 51°20.124 2°37.033 343.9 2.6 354 23.6
2008-07-16 09:52:18 51°20.147 2°36.991 279.3 2.2 273 23.2
2008-07-16 09:53:19 51°20.126 2°36.93 240.4 2.9 236 23.8
2008-07-16 09:54:19 51°20.103 2°36.883 241.5 1.6 225 23.4
2008-07-16 09:55:19 51°20.09 2°36.876 222.7 0.6 150 23.8
2008-07-16 09:56:19 51°20.083 2°36.891 210.2 0.7 122 24.4
2008-07-16 09:57:19 51°20.077 2°36.909 201.5 0.8 117 26.5
2008-07-16 09:58:19 51°20.071 2°36.929 198.5 0.8 112 26.2
2008-07-16 09:59:18 51°20.065 2°36.948 201 0.9 136 25.5
2008-07-16 10:00:19 51°20.049 2°36.945 234.3 1.2 217 25.2
2008-07-16 10:01:19 51°20.044 2°36.913 279.5 1.5 287 24.9
2008-07-16 10:02:18 51°20.067 2°36.884 320.4 2 338 25.6
2008-07-16 10:03:19 51°20.092 2°36.883 346.1 0.8 62 23.4
2008-07-16 10:04:18 51°20.093 2°36.904 9.1 0.8 91 -999
2008-07-16 10:05:19 51°20.094 2°36.927 24.8 0.9 76 26.2
2008-07-16 10:06:18 51°20.102 2°36.954 15.4 1.3 54 24.1
2008-07-16 10:07:19 51°20.119 2°36.982 357.2 1.4 40 23.3
2008-07-16 10:08:18 51°20.138 2°37 333.8 1.3 22 23.2
2008-07-16 10:09:19 51°20.158 2°36.998 300.3 1.2 327 23.9
2008-07-16 10:10:19 51°20.148 2°36.951 232.5 3.4 224 22.9
2008-07-16 10:11:19 51°20.105 2°36.904 218.2 2.4 205 23.9
2008-07-16 10:12:19 51°20.087 2°36.896 237.2 0.5 170 23.8
2008-07-16 10:13:19 51°20.081 2°36.9 245.6 0.3 142 25.6
2008-07-16 10:14:19 51°20.077 2°36.908 244.5 0.5 119 26.6
2008-07-16 10:15:18 51°20.074 2°36.92 241.1 0.6 110 26.4
2008-07-16 10:16:19 51°20.07 2°36.931 243.7 0.3 157 26.4
2008-07-16 10:17:19 51°20.068 2°36.924 271.4 0.5 287 26
2008-07-16 10:18:18 51°20.077 2°36.906 292.7 1.2 317 26.5
2008-07-16 10:19:19 51°20.092 2°36.894 306.8 0.8 1 22.5
2008-07-16 10:20:18 51°20.106 2°36.9 320.5 0.9 26 24
2008-07-16 10:21:19 51°20.122 2°36.91 316 1.1 8 24.2
2008-07-16 10:22:18 51°20.136 2°36.905 284.4 0.7 329 24.3
2008-07-16 10:23:19 51°20.136 2°36.894 245.9 0.5 227 24.4
2008-07-16 10:24:18 51°20.122 2°36.891 215.5 1.2 183 24.3
2008-07-16 10:25:19 51°20.098 2°36.891 208.8 1.4 175 23.2
2008-07-16 10:26:19 51°20.085 2°36.903 213.8 0.8 135 25.4
2008-07-16 10:27:19 51°20.077 2°36.918 217.2 0.7 127 27
2008-07-16 10:28:19 51°20.071 2°36.935 221 0.8 116 26.4
2008-07-16 10:29:19 51°20.053 2°36.947 192.8 1.9 159 25.4
2008-07-16 10:30:18 51°20.008 2°37.002 148.2 5.7 138 24
2008-07-16 10:31:18 51°19.925 2°37.156 132 9.5 127 22.9
2008-07-16 10:32:18 51°19.803 2°37.403 130.6 12.8 129 23.6
2008-07-16 10:33:19 51°19.667 2°37.677 131.2 12.9 129 23.5
2008-07-16 10:34:18 51°19.536 2°37.944 128.8 12.9 125 23.9
2008-07-16 10:35:19 51°19.408 2°38.227 128.9 12.9 125 25.4
2008-07-16 10:36:18 51°19.282 2°38.496 129.4 12.9 126 27.9
2008-07-16 10:37:19 51°19.146 2°38.769 130.5 12.9 128 29.9
2008-07-16 10:38:18 51°19.022 2°39.039 127.6 12.9 125 29.7
2008-07-16 10:39:19 51°18.9 2°39.326 127.3 12.8 124 28
2008-07-16 10:40:18 51°18.78 2°39.599 128.3 12.9 127 26.9
2008-07-16 10:41:19 51°18.661 2°39.888 120.4 13 115 27
2008-07-16 10:42:19 51°18.569 2°40.2 117.8 13 116 25.6
2008-07-16 10:43:19 51°18.477 2°40.517 118.2 13.3 116 15.3
2008-07-16 10:44:19 51°18.384 2°40.836 118 13.2 115 18
2008-07-16 10:45:19 51°18.292 2°41.156 117.6 13.3 114 22.2
2008-07-16 10:46:19 51°18.197 2°41.473 121.1 13.2 117 24.3
2008-07-16 10:47:18 51°18.09 2°41.77 123.7 13 122 25.7
2008-07-16 10:48:19 51°17.969 2°42.063 126.7 12.9 126 26.2
2008-07-16 10:49:19 51°17.85 2°42.348 127.4 12.9 124 26.2
2008-07-16 10:50:19 51°17.731 2°42.633 127 12.9 123 24.9
2008-07-16 10:51:19 51°17.614 2°42.92 126.6 13 123 17.3
2008-07-16 10:52:18 51°17.497 2°43.202 129.8 13 128 13.7
2008-07-16 10:53:19 51°17.357 2°43.472 132.6 13.1 129 16.3
2008-07-16 10:54:18 51°17.222 2°43.731 132.9 12.8 130 17.3
2008-07-16 10:55:19 51°17.08 2°43.993 134 12.8 131 17.4
2008-07-16 10:56:18 51°16.943 2°44.242 135.1 12.7 129 18.1
2008-07-16 10:57:19 51°16.803 2°44.499 135.9 12.6 130 16.8
2008-07-16 10:58:19 51°16.665 2°44.751 135.5 12.6 130 14.9
2008-07-16 10:59:19 51°16.536 2°45.015 132.5 12.7 128 13.7
2008-07-16 11:00:19 51°16.407 2°45.279 131.7 12.7 123 13.5
2008-07-16 11:01:19 51°16.291 2°45.561 125.3 12.8 121 13
2008-07-16 11:02:19 51°16.192 2°45.863 118.9 13 114 13.1
2008-07-16 11:03:19 51°16.106 2°46.177 115.6 13 114 14.4
2008-07-16 11:04:19 51°16.014 2°46.493 119 13.2 116 15.5
2008-07-16 11:05:18 51°15.927 2°46.809 119.2 13.2 113 18.8
2008-07-16 11:06:19 51°15.838 2°47.137 118.4 13.3 112 18.9
2008-07-16 11:07:19 51°15.773 2°47.476 109.7 13.4 107 17.3
2008-07-16 11:08:19 51°15.726 2°47.823 103.2 13.3 101 16.2
2008-07-16 11:09:19 51°15.684 2°48.169 104.3 13.2 101 14.4
2008-07-16 11:10:19 51°15.639 2°48.512 105.1 13.2 102 13.2
2008-07-16 11:11:19 51°15.585 2°48.85 108.4 13.1 105 13
2008-07-16 11:12:19 51°15.536 2°49.19 103.5 13.3 100 14.7
2008-07-16 11:13:19 51°15.503 2°49.539 102.8 13.3 103 15.4
2008-07-16 11:14:19 51°15.453 2°49.881 108 13.2 104 15.4
2008-07-16 11:15:19 51°15.386 2°50.214 112.6 13.2 108 15.3
2008-07-16 11:16:19 51°15.323 2°50.547 110.4 13 108 15.2
2008-07-16 11:17:19 51°15.242 2°50.869 115.3 13.1 112 14.9
2008-07-16 11:18:19 51°15.157 2°51.188 117.8 13.1 113 14.6
2008-07-16 11:19:19 51°15.069 2°51.505 118.6 13.1 114 14.2
2008-07-16 11:20:19 51°14.995 2°51.83 112 13.1 107 13.6
2008-07-16 11:21:19 51°14.935 2°52.162 109.5 13.1 106 12.9
2008-07-16 11:22:19 51°14.867 2°52.489 113.3 13 110 12.5
2008-07-16 11:23:19 51°14.802 2°52.815 110 12.9 106 12.2
2008-07-16 11:24:19 51°14.74 2°53.142 109.5 12.8 109 11.8
2008-07-16 11:25:19 51°14.681 2°53.469 105.7 12.9 103 11.6
2008-07-16 11:26:19 51°14.64 2°53.808 104.6 13.1 100 13.4
2008-07-16 11:27:19 51°14.596 2°54.152 108.4 13.2 106 13.6
2008-07-16 11:28:19 51°14.536 2°54.485 111.4 13 107 13.7
2008-07-16 11:29:19 51°14.459 2°54.806 116.8 12.7 115 13.1
2008-07-16 11:30:19 51°14.347 2°55.089 126.3 11.9 131 13.6
2008-07-16 11:31:19 51°14.232 2°55.299 134.6 9.3 137 13.4
2008-07-16 11:32:19 51°14.125 2°55.423 145.7 6.9 145 13.7
2008-07-16 11:33:19 51°14.048 2°55.525 135.6 5.4 134 13.7
2008-07-16 11:34:19 51°13.991 2°55.605 154.5 3.6 155 13.9
2008-07-16 11:35:19 51°13.956 2°55.619 182.9 1.3 176 14.1
2008-07-16 11:36:19 51°13.956 2°55.627 193.8 0.7 39 -999
2008-07-16 11:37:18 51°13.962 2°55.639 193.1 0.6 59 14.1
2008-07-16 11:38:19 51°13.959 2°55.649 193.9 0.6 159 14.3
2008-07-16 11:39:19 51°13.949 2°55.653 201.6 0.5 167 14
2008-07-16 11:40:19 51°13.94 2°55.656 205.3 0.6 173 14
2008-07-16 11:41:19 51°13.93 2°55.661 210.9 0.4 125 13.8